Time;durP1;ratioP1;P1;durP2;ratioP2;P2;SDS_P1;SDS_P2;PMS_P1;PMS_P2;Temp;Humidity;BMP_temperature;BMP_pressure;BME280_temperature;BME280_humidity;BME280_pressure;Samples;Min_cycle;Max_cycle;Signal;HPM_P1;HPM_P2
2022/11/03 00:01:11;;;;;;;13.27;11.47;;;10.00;99.90;;;;;;5044372;28;20474;-68
2022/11/03 00:03:39;;;;;;;13.90;11.70;;;10.00;99.90;;;;;;5043695;28;21064;-68
2022/11/03 00:06:06;;;;;;;14.23;12.73;;;10.00;99.90;;;;;;5047095;28;20464;-69
2022/11/03 00:08:35;;;;;;;16.30;12.33;;;10.00;99.90;;;;;;5046588;28;21119;-67
2022/11/03 00:11:07;;;;;;;13.60;12.30;;;10.00;99.90;;;;;;5048462;28;20463;-69
2022/11/03 00:13:35;;;;;;;14.27;12.23;;;10.00;99.90;;;;;;5044620;28;20477;-68
2022/11/03 00:16:02;;;;;;;14.43;12.57;;;10.00;99.90;;;;;;5044574;28;20973;-68
2022/11/03 00:18:31;;;;;;;14.97;12.80;;;10.00;99.90;;;;;;5046988;28;20830;-68
2022/11/03 00:21:02;;;;;;;17.23;12.00;;;10.00;99.90;;;;;;5045811;28;20470;-69
2022/11/03 00:23:30;;;;;;;32.43;13.33;;;10.00;99.90;;;;;;5046799;28;21012;-68
2022/11/03 00:26:07;;;;;;;19.33;13.10;;;10.00;99.90;;;;;;5048666;28;20464;-68
2022/11/03 00:28:35;;;;;;;16.47;12.23;;;10.00;99.90;;;;;;5047796;28;20890;-67
2022/11/03 00:31:07;;;;;;;18.23;12.33;;;10.00;99.90;;;;;;5044929;28;20459;-68
2022/11/03 00:33:34;;;;;;;22.80;12.80;;;10.00;99.90;;;;;;5043224;28;20546;-67
2022/11/03 00:36:03;;;;;;;18.23;12.83;;;9.90;99.90;;;;;;5037973;28;20469;-68
2022/11/03 00:38:30;;;;;;;13.93;12.50;;;9.90;99.90;;;;;;5049180;28;20475;-67
2022/11/03 00:40:59;;;;;;;20.87;14.40;;;9.90;99.90;;;;;;5046574;28;20462;-69
2022/11/03 00:43:26;;;;;;;28.23;13.00;;;9.80;99.90;;;;;;5049149;28;20486;-68
2022/11/03 00:45:54;;;;;;;18.73;13.27;;;9.80;99.90;;;;;;5045261;28;20460;-68
2022/11/03 00:48:32;;;;;;;16.93;12.60;;;9.80;99.90;;;;;;5045200;28;20736;-67
2022/11/03 00:51:10;;;;;;;28.13;12.87;;;9.80;99.90;;;;;;5042572;28;20541;-68
2022/11/03 00:53:39;;;;;;;17.23;12.70;;;9.70;99.90;;;;;;5047016;28;20470;-68
2022/11/03 00:56:07;;;;;;;18.33;12.83;;;9.70;99.90;;;;;;5047200;28;20665;-68
2022/11/03 00:58:35;;;;;;;20.70;12.33;;;9.70;99.90;;;;;;5045734;28;20528;-67
2022/11/03 01:01:04;;;;;;;22.40;13.80;;;9.70;99.90;;;;;;5045192;28;21011;-69
2022/11/03 01:03:33;;;;;;;21.47;12.20;;;9.70;99.90;;;;;;5042558;28;20933;-69
2022/11/03 01:08:46;;;;;;;14.70;11.77;;;9.60;99.90;;;;;;5043710;28;20509;-67
2022/11/03 01:14:04;;;;;;;13.70;11.57;;;9.50;99.90;;;;;;5044026;28;20491;-69
2022/11/03 01:16:32;;;;;;;16.53;12.37;;;9.50;99.90;;;;;;5045956;28;20955;-69
2022/11/03 01:18:59;;;;;;;23.47;12.50;;;9.50;99.90;;;;;;5045666;28;20529;-69
2022/11/03 01:21:26;;;;;;;16.53;12.33;;;9.50;99.90;;;;;;5044145;28;20895;-68
2022/11/03 01:23:55;;;;;;;13.40;12.00;;;9.50;99.90;;;;;;5044623;28;20495;-68
2022/11/03 01:29:58;;;;;;;17.70;12.20;;;9.50;99.90;;;;;;5045202;28;21068;-68
2022/11/03 01:32:25;;;;;;;21.50;12.30;;;9.50;99.90;;;;;;5039848;28;20549;-68
2022/11/03 01:34:53;;;;;;;18.20;11.73;;;9.50;99.90;;;;;;5045913;28;20459;-68
2022/11/03 01:37:21;;;;;;;12.33;10.87;;;9.50;99.90;;;;;;5044514;28;20876;-68
2022/11/03 01:39:49;;;;;;;12.87;11.60;;;9.50;99.90;;;;;;5045801;28;20452;-69
2022/11/03 01:42:16;;;;;;;19.77;13.20;;;9.50;99.90;;;;;;5044053;28;20821;-69
2022/11/03 01:44:47;;;;;;;17.60;11.60;;;9.50;99.90;;;;;;5054350;28;20857;-68
2022/11/03 01:47:21;;;;;;;25.37;12.20;;;9.40;99.90;;;;;;5045378;28;20479;-67
2022/11/03 01:49:51;;;;;;;20.33;12.40;;;9.50;99.90;;;;;;5044282;28;20467;-68
2022/11/03 01:52:23;;;;;;;18.20;11.80;;;9.50;99.90;;;;;;5039539;28;20475;-69
2022/11/03 01:54:56;;;;;;;17.70;11.00;;;9.50;99.90;;;;;;5044699;28;20887;-67
2022/11/03 01:57:27;;;;;;;13.67;10.70;;;9.50;99.90;;;;;;5044647;28;20468;-67
2022/11/03 01:59:57;;;;;;;22.10;11.10;;;9.50;99.90;;;;;;5046185;28;20467;-67
2022/11/03 02:02:25;;;;;;;13.97;11.63;;;9.60;99.90;;;;;;5042546;28;20463;-68
2022/11/03 02:04:54;;;;;;;24.07;12.07;;;9.60;99.90;;;;;;5045654;28;20831;-68
2022/11/03 02:07:27;;;;;;;22.00;11.20;;;9.60;99.90;;;;;;5037728;28;20459;-67
2022/11/03 02:09:56;;;;;;;14.10;10.27;;;9.60;99.90;;;;;;5042396;28;20468;-67
2022/11/03 02:12:23;;;;;;;13.83;10.37;;;9.60;99.90;;;;;;5046089;28;20464;-67
2022/11/03 02:14:53;;;;;;;23.80;11.07;;;9.60;99.90;;;;;;5045788;28;20512;-67
2022/11/03 02:17:23;;;;;;;14.93;11.77;;;9.70;99.90;;;;;;5046300;28;20471;-68
2022/11/03 02:19:55;;;;;;;17.43;10.90;;;9.70;99.90;;;;;;5045401;28;20471;-68
2022/11/03 02:22:35;;;;;;;12.10;10.67;;;9.70;99.90;;;;;;5039519;28;20464;-68
2022/11/03 02:25:14;;;;;;;13.90;9.67;;;9.70;99.90;;;;;;5038184;28;20509;-69
2022/11/03 02:27:43;;;;;;;18.37;10.87;;;9.70;99.90;;;;;;5045014;28;20861;-68
2022/11/03 02:30:11;;;;;;;11.30;10.30;;;9.80;99.90;;;;;;5042986;28;20954;-68
2022/11/03 02:32:48;;;;;;;11.53;10.43;;;9.80;99.90;;;;;;5044786;28;20891;-67
2022/11/03 02:35:22;;;;;;;13.17;11.23;;;9.90;99.90;;;;;;5041638;28;20834;-68
2022/11/03 02:37:54;;;;;;;12.00;10.80;;;9.90;99.90;;;;;;5034659;28;20467;-68
2022/11/03 02:40:27;;;;;;;12.10;10.90;;;9.90;99.90;;;;;;5041786;28;20491;-67
2022/11/03 02:42:56;;;;;;;12.10;10.77;;;9.90;99.90;;;;;;5045676;28;20478;-68
2022/11/03 02:45:25;;;;;;;13.33;10.50;;;10.00;99.90;;;;;;5048298;28;20470;-68
2022/11/03 02:47:55;;;;;;;15.17;10.00;;;10.10;99.90;;;;;;5048959;28;20835;-69
2022/11/03 02:50:27;;;;;;;13.23;9.80;;;10.10;99.90;;;;;;5048471;28;20468;-69
2022/11/03 02:52:55;;;;;;;12.70;11.10;;;10.10;99.90;;;;;;5046675;28;20456;-68
2022/11/03 02:55:31;;;;;;;11.00;10.20;;;10.10;99.90;;;;;;5049969;28;20846;-68
2022/11/03 02:58:06;;;;;;;15.07;10.43;;;10.10;99.90;;;;;;5043966;28;20456;-67
2022/11/03 03:00:38;;;;;;;13.73;10.37;;;10.10;99.90;;;;;;5048507;28;20912;-68
2022/11/03 03:03:10;;;;;;;10.87;9.90;;;10.20;99.90;;;;;;5046678;28;20486;-68
2022/11/03 03:05:40;;;;;;;10.97;10.00;;;10.30;99.90;;;;;;5048627;28;20543;-68
2022/11/03 03:08:10;;;;;;;11.20;10.10;;;10.30;99.90;;;;;;5048610;28;20546;-67
2022/11/03 03:10:40;;;;;;;16.87;10.40;;;10.30;99.90;;;;;;5047783;28;20582;-67
2022/11/03 03:13:12;;;;;;;16.60;10.40;;;10.30;99.90;;;;;;5048290;28;20826;-69
2022/11/03 03:15:45;;;;;;;11.67;10.47;;;10.30;99.90;;;;;;5047733;28;21001;-69
2022/11/03 03:18:20;;;;;;;16.00;11.33;;;10.30;99.90;;;;;;5048418;28;20559;-68
2022/11/03 03:20:55;;;;;;;17.97;10.50;;;10.30;99.90;;;;;;5045484;28;20978;-67
2022/11/03 03:23:25;;;;;;;14.03;10.93;;;10.40;99.90;;;;;;5047710;28;21020;-68
2022/11/03 03:25:58;;;;;;;11.33;9.93;;;10.30;99.90;;;;;;5049540;28;20479;-68
2022/11/03 03:28:33;;;;;;;11.57;10.60;;;10.30;99.90;;;;;;5048084;28;20556;-68
2022/11/03 03:31:03;;;;;;;23.90;12.30;;;10.30;99.90;;;;;;5047016;28;20578;-68
2022/11/03 03:33:31;;;;;;;18.40;10.63;;;10.30;99.90;;;;;;5044147;28;20492;-67
2022/11/03 03:36:01;;;;;;;12.27;11.00;;;10.20;99.90;;;;;;5047885;28;20467;-67
2022/11/03 03:38:33;;;;;;;11.87;10.80;;;10.20;99.90;;;;;;5044369;28;20553;-67
2022/11/03 03:41:01;;;;;;;14.97;10.43;;;10.20;99.90;;;;;;5045229;28;20469;-68
2022/11/03 03:43:32;;;;;;;25.73;11.10;;;10.20;99.90;;;;;;5048559;28;20552;-68
2022/11/03 03:46:04;;;;;;;17.80;10.60;;;10.30;99.90;;;;;;5046991;28;20484;-68
2022/11/03 03:48:32;;;;;;;16.53;10.50;;;10.40;99.90;;;;;;5044774;28;20858;-67
2022/11/03 03:51:01;;;;;;;12.90;10.07;;;10.40;99.90;;;;;;5047258;28;20463;-67
2022/11/03 03:53:30;;;;;;;18.07;10.20;;;10.40;99.90;;;;;;5047510;28;20973;-68
2022/11/03 03:55:59;;;;;;;11.97;10.60;;;10.40;99.90;;;;;;5048593;28;20524;-67
2022/11/03 03:58:26;;;;;;;25.60;11.80;;;10.40;99.90;;;;;;5048033;28;20540;-68
2022/11/03 04:00:55;;;;;;;21.53;11.33;;;10.40;99.90;;;;;;5044753;28;20831;-68
2022/11/03 04:03:23;;;;;;;11.90;10.10;;;10.50;99.90;;;;;;5046696;28;20463;-69
2022/11/03 04:05:50;;;;;;;15.47;10.30;;;10.50;99.90;;;;;;5047768;28;20550;-67
2022/11/03 04:08:17;;;;;;;13.90;11.00;;;10.50;99.90;;;;;;5047100;28;20475;-69
2022/11/03 04:22:15;;;;;;;13.57;10.40;;;10.50;99.90;;;;;;5048180;28;20456;-68
2022/11/03 04:24:35;;;;;;;15.80;10.50;;;10.40;99.90;;;;;;5045357;28;20500;-68
2022/11/03 04:27:14;;;;;;;11.13;10.03;;;10.40;99.90;;;;;;5046642;28;20559;-68
2022/11/03 04:29:41;;;;;;;11.60;9.70;;;10.40;99.90;;;;;;5044759;28;20479;-67
2022/11/03 04:32:15;;;;;;;19.70;10.60;;;10.40;99.90;;;;;;5038033;28;20509;-68
2022/11/03 04:34:43;;;;;;;13.00;10.33;;;10.40;99.90;;;;;;5043684;28;20551;-69
2022/11/03 04:37:11;;;;;;;10.00;9.20;;;10.40;99.90;;;;;;5046264;28;20986;-68
2022/11/03 04:39:38;;;;;;;18.67;10.20;;;10.40;99.90;;;;;;5047578;28;20585;-68
2022/11/03 04:42:15;;;;;;;10.23;9.47;;;10.40;99.90;;;;;;5041408;28;20831;-69
2022/11/03 04:44:42;;;;;;;16.00;9.93;;;10.40;99.90;;;;;;5045574;28;20835;-68
2022/11/03 04:47:12;;;;;;;19.87;10.67;;;10.50;99.90;;;;;;5044498;28;20975;-68
2022/11/03 04:49:40;;;;;;;20.53;10.17;;;10.50;99.90;;;;;;5047331;28;20526;-68
2022/11/03 04:52:14;;;;;;;18.57;10.97;;;10.40;99.90;;;;;;5045784;28;20897;-69
2022/11/03 04:54:43;;;;;;;11.47;10.37;;;10.40;99.90;;;;;;5046613;28;20472;-67
2022/11/03 04:57:12;;;;;;;11.70;10.60;;;10.40;99.90;;;;;;5042434;28;20483;-69
2022/11/03 04:59:40;;;;;;;14.63;10.03;;;10.50;99.90;;;;;;5046268;28;20551;-68
2022/11/03 05:02:14;;;;;;;14.97;10.30;;;10.40;99.90;;;;;;5039394;28;20478;-68
2022/11/03 05:04:41;;;;;;;11.53;10.33;;;10.40;99.90;;;;;;5042058;28;20517;-68
2022/11/03 05:07:22;;;;;;;16.40;10.53;;;10.40;99.90;;;;;;5043467;28;20543;-68
2022/11/03 05:09:50;;;;;;;10.70;9.80;;;10.50;99.90;;;;;;5042955;28;20464;-69
2022/11/03 05:12:17;;;;;;;13.27;9.40;;;10.40;99.90;;;;;;5044449;28;21008;-68
2022/11/03 05:14:45;;;;;;;12.10;10.00;;;10.40;99.90;;;;;;5046942;28;20529;-68
2022/11/03 05:17:23;;;;;;;17.93;10.33;;;10.50;99.90;;;;;;5045340;28;20491;-69
2022/11/03 05:19:55;;;;;;;11.77;10.50;;;10.50;99.90;;;;;;5044606;28;20459;-68
2022/11/03 05:22:24;;;;;;;9.80;9.20;;;10.50;99.90;;;;;;5045298;28;20522;-68
2022/11/03 05:24:56;;;;;;;14.20;10.30;;;10.50;99.90;;;;;;5041171;28;20483;-68
2022/11/03 05:27:24;;;;;;;18.63;10.80;;;10.40;99.90;;;;;;5045590;28;20488;-68
2022/11/03 05:29:53;;;;;;;20.47;10.80;;;10.50;99.90;;;;;;5044001;28;20466;-67
2022/11/03 05:32:25;;;;;;;14.20;10.50;;;10.50;99.90;;;;;;5041071;28;20477;-68
2022/11/03 05:34:54;;;;;;;14.97;10.97;;;10.50;99.90;;;;;;5040024;28;20467;-67
2022/11/03 05:37:28;;;;;;;25.37;10.67;;;10.50;99.90;;;;;;5042286;28;20570;-68
2022/11/03 05:39:58;;;;;;;15.83;10.60;;;10.50;99.90;;;;;;5043203;28;20479;-69
2022/11/03 05:42:31;;;;;;;16.47;10.60;;;10.50;99.90;;;;;;5042770;28;20894;-70
2022/11/03 05:45:02;;;;;;;17.20;10.90;;;10.50;99.90;;;;;;5042450;28;20491;-68
2022/11/03 05:47:36;;;;;;;18.70;10.77;;;10.40;99.90;;;;;;5041213;28;20494;-68
2022/11/03 05:50:14;;;;;;;15.30;10.93;;;10.50;99.90;;;;;;5042078;28;20463;-68
2022/11/03 05:52:43;;;;;;;20.40;12.30;;;10.40;99.90;;;;;;5042864;28;20602;-67
2022/11/03 05:55:23;;;;;;;13.00;10.40;;;10.60;99.90;;;;;;5042398;28;20471;-68
2022/11/03 05:57:51;;;;;;;11.93;10.10;;;10.50;99.90;;;;;;5044696;28;21114;-68
2022/11/03 06:00:32;;;;;;;19.07;11.17;;;10.50;99.90;;;;;;5041976;28;20464;-68
2022/11/03 06:03:02;;;;;;;14.17;10.93;;;10.50;99.90;;;;;;5042982;28;20965;-69
2022/11/03 06:05:31;;;;;;;13.90;10.80;;;10.50;99.90;;;;;;5045938;28;20479;-68
2022/11/03 06:08:01;;;;;;;21.70;10.77;;;10.50;99.90;;;;;;5044033;28;20471;-68
2022/11/03 06:10:30;;;;;;;16.97;10.67;;;10.50;99.90;;;;;;5042315;28;20965;-68
2022/11/03 06:13:08;;;;;;;12.77;11.43;;;10.50;99.90;;;;;;5043178;28;20460;-68
2022/11/03 06:15:36;;;;;;;22.20;10.70;;;10.50;99.90;;;;;;5044533;28;20456;-68
2022/11/03 06:18:13;;;;;;;22.53;11.73;;;10.50;99.90;;;;;;5045473;28;20958;-68
2022/11/03 06:20:42;;;;;;;15.40;10.37;;;10.50;99.90;;;;;;5047798;28;20554;-68
2022/11/03 06:23:12;;;;;;;24.43;9.80;;;10.50;99.90;;;;;;5050430;28;20466;-68
2022/11/03 06:25:42;;;;;;;17.70;10.23;;;10.40;99.90;;;;;;5045094;28;20846;-69
2022/11/03 06:28:14;;;;;;;15.50;10.33;;;10.50;99.90;;;;;;5046758;28;20518;-69
2022/11/03 06:30:43;;;;;;;14.33;10.33;;;10.50;99.90;;;;;;5046584;28;20475;-68
2022/11/03 06:33:15;;;;;;;10.40;9.07;;;10.50;99.90;;;;;;5048384;28;20482;-67
2022/11/03 06:35:43;;;;;;;17.87;10.50;;;10.50;99.90;;;;;;5048329;28;21091;-68
2022/11/03 06:38:15;;;;;;;15.40;10.40;;;10.50;99.90;;;;;;5047274;28;20493;-67
2022/11/03 06:40:42;;;;;;;11.73;10.80;;;10.50;99.90;;;;;;5047871;28;20960;-68
2022/11/03 06:43:18;;;;;;;11.07;9.90;;;10.50;99.90;;;;;;5044100;28;20461;-70
2022/11/03 06:45:50;;;;;;;16.93;11.20;;;10.50;99.90;;;;;;5044844;28;20486;-69
2022/11/03 06:48:25;;;;;;;19.63;10.57;;;10.50;99.90;;;;;;5047099;28;20463;-68
2022/11/03 06:50:52;;;;;;;11.83;10.10;;;10.50;99.90;;;;;;5048179;28;20486;-69
2022/11/03 06:53:26;;;;;;;11.77;10.00;;;10.50;99.90;;;;;;5048334;28;21005;-68
2022/11/03 06:55:53;;;;;;;14.50;10.30;;;10.60;99.90;;;;;;5045857;28;20868;-67
2022/11/03 06:58:26;;;;;;;15.80;10.20;;;10.60;99.90;;;;;;5045834;28;20456;-68
2022/11/03 07:00:55;;;;;;;15.40;11.20;;;10.60;99.90;;;;;;5041666;28;20467;-68
2022/11/03 07:03:29;;;;;;;20.73;10.40;;;10.60;99.90;;;;;;5040582;28;21016;-69
2022/11/03 07:05:58;;;;;;;15.73;11.43;;;10.70;99.90;;;;;;5042828;28;20490;-68
2022/11/03 07:08:27;;;;;;;28.17;10.70;;;10.80;99.90;;;;;;5040704;28;20459;-68
2022/11/03 07:11:03;;;;;;;13.20;10.63;;;10.80;99.90;;;;;;5043492;28;20975;-69
2022/11/03 07:13:33;;;;;;;20.37;11.00;;;10.80;99.90;;;;;;5043947;28;20468;-68
2022/11/03 07:16:01;;;;;;;12.70;10.37;;;10.80;99.90;;;;;;5043554;28;20467;-69
2022/11/03 07:18:33;;;;;;;16.60;10.77;;;10.90;99.90;;;;;;5044213;28;20752;-69
2022/11/03 07:21:05;;;;;;;19.07;10.57;;;11.00;99.90;;;;;;5044262;28;20471;-68
2022/11/03 07:23:31;;;;;;;19.80;10.97;;;11.10;99.90;;;;;;5042422;28;20463;-68
2022/11/03 07:26:01;;;;;;;14.60;11.93;;;11.20;99.90;;;;;;5044679;28;20483;-67
2022/11/03 07:28:34;;;;;;;13.70;10.60;;;11.20;99.90;;;;;;5042583;28;20573;-68
2022/11/03 07:31:06;;;;;;;16.10;11.40;;;11.20;99.90;;;;;;5043961;28;20475;-68
2022/11/03 07:33:34;;;;;;;26.33;11.70;;;11.30;99.90;;;;;;5045690;28;20495;-69
2022/11/03 07:36:03;;;;;;;12.40;11.20;;;11.40;99.90;;;;;;5043242;28;20467;-68
2022/11/03 07:38:30;;;;;;;13.03;11.83;;;11.40;99.90;;;;;;5040485;28;20595;-68
2022/11/03 07:40:59;;;;;;;17.53;12.27;;;11.40;99.90;;;;;;5047203;28;21041;-68
2022/11/03 07:43:30;;;;;;;18.40;12.17;;;11.50;99.90;;;;;;5049760;28;20834;-68
2022/11/03 07:45:59;;;;;;;19.17;12.60;;;11.60;99.90;;;;;;5043917;28;20495;-68
2022/11/03 07:48:28;;;;;;;17.40;12.30;;;11.60;99.90;;;;;;5036788;28;20461;-69
2022/11/03 07:51:00;;;;;;;24.70;12.87;;;11.60;99.90;;;;;;5038825;28;20471;-68
2022/11/03 07:53:35;;;;;;;21.57;12.47;;;11.70;99.90;;;;;;5038901;28;20841;-69
2022/11/03 07:56:12;;;;;;;19.60;12.67;;;11.70;99.90;;;;;;5042156;28;20916;-67
2022/11/03 07:58:41;;;;;;;18.40;13.07;;;11.80;99.90;;;;;;5043917;28;20881;-69
2022/11/03 08:01:21;;;;;;;18.10;12.50;;;11.80;99.90;;;;;;5040788;28;20476;-68
2022/11/03 08:03:48;;;;;;;13.60;12.43;;;11.80;99.90;;;;;;5043689;28;20475;-70
2022/11/03 08:06:17;;;;;;;15.10;11.87;;;11.80;99.90;;;;;;5036625;28;20998;-69
2022/11/03 08:08:43;;;;;;;14.67;13.20;;;11.90;99.90;;;;;;5043803;28;20468;-67
2022/11/03 08:11:10;;;;;;;22.07;13.50;;;12.00;99.90;;;;;;5043813;28;20468;-67
2022/11/03 08:13:37;;;;;;;17.37;12.97;;;12.10;99.90;;;;;;5041530;28;20464;-69
2022/11/03 08:16:05;;;;;;;18.00;12.70;;;12.10;99.90;;;;;;5041606;28;20966;-68
2022/11/03 08:18:32;;;;;;;17.47;13.70;;;12.20;99.90;;;;;;5035702;28;20934;-68
2022/11/03 08:20:59;;;;;;;16.37;12.80;;;12.20;99.90;;;;;;5043683;28;20543;-68
2022/11/03 08:23:27;;;;;;;14.80;13.17;;;12.30;99.90;;;;;;5044104;28;20464;-69
2022/11/03 08:25:54;;;;;;;18.10;13.50;;;12.30;99.90;;;;;;5044080;28;20518;-68
2022/11/03 08:28:20;;;;;;;15.90;13.40;;;12.40;99.90;;;;;;5044941;28;21028;-68
2022/11/03 08:30:47;;;;;;;13.80;12.60;;;12.40;99.90;;;;;;5037851;28;20790;-68
2022/11/03 08:33:14;;;;;;;19.50;12.97;;;12.50;99.90;;;;;;5037577;28;20471;-69
2022/11/03 08:35:41;;;;;;;14.90;13.30;;;12.60;99.90;;;;;;5037579;28;20468;-68
2022/11/03 08:38:08;;;;;;;17.23;13.40;;;12.60;99.90;;;;;;5036894;28;20465;-69
2022/11/03 08:40:36;;;;;;;14.90;13.50;;;12.60;99.90;;;;;;5035775;28;20479;-68
2022/11/03 08:43:05;;;;;;;14.97;13.60;;;12.70;99.90;;;;;;5036302;28;20894;-68
2022/11/03 08:45:31;;;;;;;14.90;13.40;;;12.70;99.90;;;;;;5040574;28;20528;-70
2022/11/03 08:47:59;;;;;;;15.30;13.80;;;12.80;99.90;;;;;;5040459;28;20464;-68
2022/11/03 08:50:25;;;;;;;14.97;13.57;;;12.80;99.90;;;;;;5033500;28;20809;-67
2022/11/03 08:52:52;;;;;;;16.17;14.27;;;12.90;99.90;;;;;;5037064;28;20811;-68
2022/11/03 08:55:19;;;;;;;15.10;13.50;;;13.00;99.90;;;;;;5028550;28;20819;-68
2022/11/03 08:57:47;;;;;;;15.87;14.23;;;13.10;99.90;;;;;;5033872;28;20868;-68
2022/11/03 09:00:16;;;;;;;20.90;14.03;;;13.20;99.90;;;;;;5037774;28;20967;-70
2022/11/03 09:02:43;;;;;;;15.30;13.70;;;13.20;99.90;;;;;;5041566;28;20461;-69
2022/11/03 09:05:11;;;;;;;17.97;13.97;;;13.30;99.90;;;;;;5037768;28;20499;-68
2022/11/03 09:07:38;;;;;;;18.13;14.70;;;13.30;99.90;;;;;;5030721;28;20855;-68
2022/11/03 09:10:07;;;;;;;15.17;13.83;;;13.30;99.90;;;;;;5036032;28;20465;-68
2022/11/03 09:12:35;;;;;;;21.73;15.53;;;13.30;99.90;;;;;;5039389;28;20475;-68
2022/11/03 09:15:04;;;;;;;18.30;14.80;;;13.30;99.90;;;;;;5038044;28;20480;-69
2022/11/03 09:17:31;;;;;;;26.83;15.30;;;13.50;99.90;;;;;;5039100;28;20938;-68
2022/11/03 09:19:59;;;;;;;15.87;14.67;;;13.60;99.90;;;;;;5038191;28;21016;-69
2022/11/03 09:22:26;;;;;;;26.13;16.47;;;13.60;99.90;;;;;;5040732;28;20471;-68
2022/11/03 09:24:53;;;;;;;21.43;15.07;;;13.70;99.90;;;;;;5037092;28;20483;-68
2022/11/03 09:27:20;;;;;;;17.00;15.30;;;13.70;99.90;;;;;;5031152;28;20824;-69
2022/11/03 09:29:47;;;;;;;19.40;17.40;;;13.60;99.90;;;;;;5029917;28;20493;-68
2022/11/03 09:32:15;;;;;;;33.57;15.60;;;13.60;99.90;;;;;;5036370;28;20591;-69
2022/11/03 09:34:42;;;;;;;18.07;15.77;;;13.70;99.90;;;;;;5041240;28;20546;-68
2022/11/03 09:37:09;;;;;;;21.20;15.30;;;13.80;99.90;;;;;;5036344;28;20463;-68
2022/11/03 09:39:36;;;;;;;16.80;15.40;;;13.80;99.90;;;;;;5031843;28;20463;-67
2022/11/03 09:42:04;;;;;;;22.80;16.23;;;13.70;99.90;;;;;;5037733;28;20514;-68
2022/11/03 09:44:34;;;;;;;17.43;15.30;;;13.90;99.90;;;;;;5035118;28;20462;-68
2022/11/03 09:47:02;;;;;;;24.13;15.30;;;14.00;99.90;;;;;;5033250;28;20561;-69
2022/11/03 09:49:32;;;;;;;22.30;15.80;;;14.10;99.90;;;;;;5030869;28;20474;-68
2022/11/03 09:51:59;;;;;;;16.97;15.57;;;14.10;99.90;;;;;;5034043;28;20761;-69
2022/11/03 09:54:27;;;;;;;24.27;16.20;;;14.10;99.90;;;;;;5035229;28;20455;-70
2022/11/03 09:56:54;;;;;;;34.57;16.60;;;14.10;99.90;;;;;;5037604;28;20460;-69
2022/11/03 09:59:23;;;;;;;48.70;16.60;;;14.20;99.90;;;;;;5029993;28;20499;-68
2022/11/03 10:01:52;;;;;;;28.93;16.23;;;14.20;99.90;;;;;;5030764;28;20523;-68
2022/11/03 10:04:24;;;;;;;25.33;16.00;;;14.20;99.90;;;;;;5033900;28;20987;-69
2022/11/03 10:06:52;;;;;;;30.30;15.73;;;14.30;99.90;;;;;;5021904;28;20821;-70
2022/11/03 10:09:22;;;;;;;27.47;15.57;;;14.40;99.90;;;;;;5034008;28;20472;-68
2022/11/03 10:11:49;;;;;;;28.97;15.63;;;14.40;99.90;;;;;;5022782;28;20479;-68
2022/11/03 10:14:18;;;;;;;28.77;15.50;;;14.60;99.90;;;;;;5025290;28;20459;-70
2022/11/03 10:16:51;;;;;;;27.57;16.97;;;14.40;99.90;;;;;;5026224;28;20878;-68
2022/11/03 10:19:18;;;;;;;40.27;17.77;;;14.40;99.90;;;;;;5009374;28;20896;-69
2022/11/03 10:21:45;;;;;;;32.23;16.20;;;14.40;99.90;;;;;;5035099;28;20477;-68
2022/11/03 10:24:14;;;;;;;49.60;17.33;;;14.50;99.90;;;;;;5029106;28;20472;-68
2022/11/03 10:26:46;;;;;;;52.47;15.97;;;14.60;99.90;;;;;;5036475;28;20498;-68
2022/11/03 10:29:21;;;;;;;42.13;16.47;;;14.50;99.90;;;;;;5030901;28;20515;-70
2022/11/03 10:31:50;;;;;;;46.60;18.07;;;14.50;99.90;;;;;;5026694;28;20457;-69
2022/11/03 10:34:33;;;;;;;42.13;16.87;;;14.40;99.90;;;;;;5031450;28;20463;-68
2022/11/03 10:37:23;;;;;;;32.60;16.37;;;14.50;99.90;;;;;;5038789;28;20949;-68
2022/11/03 10:39:53;;;;;;;40.13;15.80;;;14.60;99.90;;;;;;5022849;28;20522;-68
2022/11/03 10:42:22;;;;;;;29.33;16.27;;;14.60;99.90;;;;;;5027376;28;20459;-68
2022/11/03 10:44:52;;;;;;;34.17;16.17;;;14.50;99.90;;;;;;5030924;28;20502;-68
2022/11/03 10:47:31;;;;;;;29.83;16.07;;;14.60;99.90;;;;;;5039064;28;20487;-68
2022/11/03 10:49:58;;;;;;;27.00;15.50;;;14.60;99.90;;;;;;5035541;28;20471;-68
2022/11/03 10:52:26;;;;;;;34.37;15.50;;;14.60;99.90;;;;;;5035644;28;20761;-70
2022/11/03 10:54:57;;;;;;;17.23;15.57;;;14.60;99.90;;;;;;5034831;28;20959;-69
2022/11/03 10:57:25;;;;;;;22.70;15.07;;;14.80;99.90;;;;;;5030203;28;20479;-69
2022/11/03 10:59:53;;;;;;;29.87;16.60;;;14.70;99.90;;;;;;5030216;28;20468;-68
2022/11/03 11:02:22;;;;;;;18.47;15.27;;;14.80;99.90;;;;;;5036746;28;20564;-69
2022/11/03 11:04:52;;;;;;;18.60;14.33;;;15.10;99.90;;;;;;5039798;28;20882;-69
2022/11/03 11:07:23;;;;;;;17.53;15.23;;;15.10;99.90;;;;;;5037553;28;20867;-68
2022/11/03 11:09:50;;;;;;;19.93;14.97;;;15.10;99.90;;;;;;5035186;28;20474;-68
2022/11/03 11:12:22;;;;;;;17.53;15.73;;;15.10;99.90;;;;;;5033757;28;20471;-68
2022/11/03 11:14:55;;;;;;;25.93;15.83;;;15.40;99.90;;;;;;5031101;28;20461;-68
2022/11/03 11:17:44;;;;;;;39.30;16.07;;;15.30;99.90;;;;;;5030545;28;20799;-68
2022/11/03 11:20:33;;;;;;;32.73;16.80;;;15.20;99.90;;;;;;5037207;28;20815;-68
2022/11/03 11:23:48;;;;;;;18.37;16.00;;;15.20;99.90;;;;;;5031513;28;20856;-69
2022/11/03 11:26:34;;;;;;;23.63;15.90;;;15.40;99.90;;;;;;5032088;28;20571;-69
2022/11/03 11:29:40;;;;;;;38.53;15.87;;;15.30;99.90;;;;;;5040339;28;20600;-68
2022/11/03 11:32:49;;;;;;;36.70;17.50;;;15.40;99.90;;;;;;5041103;28;20459;-69
2022/11/03 11:36:04;;;;;;;28.63;15.00;;;15.30;99.90;;;;;;5025813;28;20475;-67
2022/11/03 11:39:08;;;;;;;26.90;15.40;;;15.10;99.90;;;;;;5029530;28;20504;-68
2022/11/03 11:42:10;;;;;;;37.70;16.67;;;15.10;99.90;;;;;;5035388;28;20462;-68
2022/11/03 11:44:52;;;;;;;56.80;17.20;;;15.00;99.90;;;;;;5037261;28;20468;-68
2022/11/03 11:47:27;;;;;;;65.73;16.90;;;14.80;99.90;;;;;;5037445;28;21012;-70
2022/11/03 11:50:11;;;;;;;39.23;16.83;;;14.80;99.90;;;;;;5037276;28;21040;-70
2022/11/03 11:52:43;;;;;;;29.57;15.23;;;14.60;99.90;;;;;;5035507;28;20491;-69
2022/11/03 11:55:19;;;;;;;44.10;16.50;;;14.70;99.90;;;;;;5031452;28;20459;-69
2022/11/03 11:57:47;;;;;;;46.27;16.30;;;14.60;99.90;;;;;;5035640;28;20507;-70
2022/11/03 12:00:21;;;;;;;25.57;15.00;;;14.60;99.90;;;;;;5036819;28;20707;-69
2022/11/03 12:02:48;;;;;;;32.03;15.73;;;14.60;99.90;;;;;;5032851;28;20543;-68
2022/11/03 12:05:20;;;;;;;23.07;14.47;;;14.60;99.90;;;;;;5032891;28;20478;-68
2022/11/03 12:07:47;;;;;;;27.37;15.23;;;14.90;99.90;;;;;;5028886;28;20488;-68
2022/11/03 12:10:17;;;;;;;38.20;15.40;;;15.10;99.90;;;;;;5038202;28;20467;-69
2022/11/03 12:12:44;;;;;;;34.63;15.73;;;15.00;99.90;;;;;;5041346;28;20529;-70
2022/11/03 12:15:45;;;;;;;59.33;16.80;;;15.10;99.90;;;;;;5042770;28;20464;-70
2022/11/03 12:18:35;;;;;;;40.50;17.30;;;15.20;99.90;;;;;;5040857;28;20456;-69
2022/11/03 12:21:03;;;;;;;41.50;16.57;;;15.20;99.90;;;;;;5041904;28;20467;-69
2022/11/03 12:23:41;;;;;;;38.20;16.90;;;15.10;99.90;;;;;;5039302;28;20476;-68
2022/11/03 12:26:18;;;;;;;28.17;15.50;;;15.20;99.90;;;;;;5040542;28;20502;-68
2022/11/03 12:28:45;;;;;;;25.53;14.23;;;15.10;99.90;;;;;;5031750;28;20487;-68
2022/11/03 12:31:12;;;;;;;63.80;17.03;;;15.10;99.90;;;;;;5038928;28;20463;-70
2022/11/03 12:33:40;;;;;;;28.07;15.10;;;15.10;99.90;;;;;;5040910;28;20613;-70
2022/11/03 12:36:07;;;;;;;70.97;18.80;;;15.20;99.90;;;;;;5033993;28;20469;-68
2022/11/03 12:38:35;;;;;;;44.93;16.40;;;15.20;99.90;;;;;;5029198;28;20545;-70
2022/11/03 12:41:20;;;;;;;40.10;15.50;;;15.10;99.90;;;;;;5037864;28;20459;-69
2022/11/03 12:43:49;;;;;;;37.03;16.67;;;15.10;99.90;;;;;;5035698;28;20468;-69
2022/11/03 12:46:17;;;;;;;40.70;17.33;;;15.00;99.90;;;;;;5038474;28;21031;-69
2022/11/03 12:48:43;;;;;;;32.20;15.20;;;15.00;99.90;;;;;;5037375;28;20464;-68
2022/11/03 12:51:12;;;;;;;35.40;16.27;;;15.00;99.90;;;;;;5035188;28;20456;-70
2022/11/03 12:53:40;;;;;;;51.30;17.20;;;14.90;99.90;;;;;;5039773;28;20550;-70
2022/11/03 12:56:08;;;;;;;55.63;18.30;;;14.80;99.90;;;;;;5038876;28;20460;-69
2022/11/03 12:58:34;;;;;;;58.33;19.03;;;14.80;99.90;;;;;;5036011;28;20467;-68
2022/11/03 13:01:04;;;;;;;65.57;18.50;;;14.90;99.90;;;;;;5039612;28;20502;-68
2022/11/03 13:03:32;;;;;;;40.20;16.10;;;14.90;99.90;;;;;;5038702;28;20456;-69
2022/11/03 13:05:59;;;;;;;35.63;16.03;;;14.90;99.90;;;;;;5030743;28;20460;-68
2022/11/03 13:08:27;;;;;;;32.90;15.53;;;14.90;99.90;;;;;;5034161;28;20460;-68